sensor_id;sensor_type;location;lat;lon;timestamp;P1;durP1;ratioP1;P2;durP2;ratioP2
70467;SDS011;57934;51.532;7.684;2023-08-30T00:00:55;6.68;;;6.03;;
70467;SDS011;57934;51.532;7.684;2023-08-30T00:03:21;12.27;;;7.15;;
70467;SDS011;57934;51.532;7.684;2023-08-30T00:05:47;8.63;;;6.45;;
70467;SDS011;57934;51.532;7.684;2023-08-30T00:08:13;7.70;;;6.45;;
70467;SDS011;57934;51.532;7.684;2023-08-30T00:10:47;7.93;;;6.40;;
70467;SDS011;57934;51.532;7.684;2023-08-30T00:13:13;8.23;;;6.50;;
70467;SDS011;57934;51.532;7.684;2023-08-30T00:15:39;9.85;;;6.53;;
70467;SDS011;57934;51.532;7.684;2023-08-30T00:18:05;8.07;;;6.70;;
70467;SDS011;57934;51.532;7.684;2023-08-30T00:20:31;9.85;;;7.20;;
70467;SDS011;57934;51.532;7.684;2023-08-30T00:22:57;8.57;;;6.85;;
70467;SDS011;57934;51.532;7.684;2023-08-30T00:25:23;9.90;;;7.20;;
70467;SDS011;57934;51.532;7.684;2023-08-30T00:27:49;10.02;;;7.80;;
70467;SDS011;57934;51.532;7.684;2023-08-30T00:30:15;8.48;;;7.30;;
70467;SDS011;57934;51.532;7.684;2023-08-30T00:32:41;8.15;;;7.30;;
70467;SDS011;57934;51.532;7.684;2023-08-30T00:35:07;12.57;;;7.35;;
70467;SDS011;57934;51.532;7.684;2023-08-30T00:37:33;10.48;;;8.27;;
70467;SDS011;57934;51.532;7.684;2023-08-30T00:39:59;13.32;;;8.48;;
70467;SDS011;57934;51.532;7.684;2023-08-30T00:46:14;10.23;;;9.10;;
70467;SDS011;57934;51.532;7.684;2023-08-30T00:48:41;14.40;;;9.32;;
70467;SDS011;57934;51.532;7.684;2023-08-30T00:51:08;10.93;;;9.45;;
70467;SDS011;57934;51.532;7.684;2023-08-30T00:53:34;12.40;;;9.82;;
70467;SDS011;57934;51.532;7.684;2023-08-30T00:56:01;10.45;;;8.93;;
70467;SDS011;57934;51.532;7.684;2023-08-30T00:58:27;11.00;;;9.70;;
70467;SDS011;57934;51.532;7.684;2023-08-30T01:00:53;12.70;;;10.75;;
70467;SDS011;57934;51.532;7.684;2023-08-30T01:03:20;9.98;;;9.05;;
70467;SDS011;57934;51.532;7.684;2023-08-30T01:05:48;13.18;;;9.90;;
70467;SDS011;57934;51.532;7.684;2023-08-30T01:08:14;13.32;;;10.60;;
70467;SDS011;57934;51.532;7.684;2023-08-30T01:13:24;12.83;;;9.77;;
70467;SDS011;57934;51.532;7.684;2023-08-30T01:15:53;13.32;;;11.93;;
70467;SDS011;57934;51.532;7.684;2023-08-30T01:18:22;19.02;;;11.25;;
70467;SDS011;57934;51.532;7.684;2023-08-30T01:20:52;14.55;;;11.65;;
70467;SDS011;57934;51.532;7.684;2023-08-30T01:23:29;13.68;;;12.27;;
70467;SDS011;57934;51.532;7.684;2023-08-30T01:28:39;15.07;;;12.68;;
70467;SDS011;57934;51.532;7.684;2023-08-30T01:31:08;16.27;;;12.10;;
70467;SDS011;57934;51.532;7.684;2023-08-30T01:33:36;16.75;;;13.60;;
70467;SDS011;57934;51.532;7.684;2023-08-30T01:36:03;14.60;;;13.15;;
70467;SDS011;57934;51.532;7.684;2023-08-30T01:38:32;16.25;;;13.70;;
70467;SDS011;57934;51.532;7.684;2023-08-30T01:41:01;16.55;;;13.57;;
70467;SDS011;57934;51.532;7.684;2023-08-30T01:43:28;21.83;;;14.30;;
70467;SDS011;57934;51.532;7.684;2023-08-30T01:45:57;21.55;;;14.18;;
70467;SDS011;57934;51.532;7.684;2023-08-30T01:48:26;16.85;;;14.30;;
70467;SDS011;57934;51.532;7.684;2023-08-30T01:50:55;15.57;;;13.80;;
70467;SDS011;57934;51.532;7.684;2023-08-30T01:53:24;15.90;;;13.55;;
70467;SDS011;57934;51.532;7.684;2023-08-30T01:55:51;18.33;;;14.68;;
70467;SDS011;57934;51.532;7.684;2023-08-30T01:58:18;19.83;;;14.43;;
70467;SDS011;57934;51.532;7.684;2023-08-30T02:00:44;20.60;;;14.65;;
70467;SDS011;57934;51.532;7.684;2023-08-30T02:03:10;15.88;;;14.13;;
70467;SDS011;57934;51.532;7.684;2023-08-30T02:08:30;20.15;;;14.63;;
70467;SDS011;57934;51.532;7.684;2023-08-30T02:11:02;17.58;;;14.10;;
70467;SDS011;57934;51.532;7.684;2023-08-30T02:13:32;16.90;;;15.05;;
70467;SDS011;57934;51.532;7.684;2023-08-30T02:16:00;16.73;;;14.88;;
70467;SDS011;57934;51.532;7.684;2023-08-30T02:18:27;17.63;;;14.02;;
70467;SDS011;57934;51.532;7.684;2023-08-30T02:20:56;21.48;;;15.27;;
70467;SDS011;57934;51.532;7.684;2023-08-30T02:23:23;17.52;;;15.23;;
70467;SDS011;57934;51.532;7.684;2023-08-30T02:25:50;20.88;;;15.63;;
70467;SDS011;57934;51.532;7.684;2023-08-30T02:28:16;20.80;;;15.35;;
70467;SDS011;57934;51.532;7.684;2023-08-30T02:30:42;20.95;;;16.08;;
70467;SDS011;57934;51.532;7.684;2023-08-30T02:33:08;22.00;;;16.85;;
70467;SDS011;57934;51.532;7.684;2023-08-30T02:35:34;20.27;;;15.98;;
70467;SDS011;57934;51.532;7.684;2023-08-30T02:38:00;20.00;;;16.88;;
70467;SDS011;57934;51.532;7.684;2023-08-30T02:40:30;20.05;;;16.45;;
70467;SDS011;57934;51.532;7.684;2023-08-30T02:42:57;25.45;;;17.40;;
70467;SDS011;57934;51.532;7.684;2023-08-30T02:45:23;21.20;;;16.42;;
70467;SDS011;57934;51.532;7.684;2023-08-30T02:47:50;22.80;;;18.20;;
70467;SDS011;57934;51.532;7.684;2023-08-30T02:50:16;22.25;;;17.35;;
70467;SDS011;57934;51.532;7.684;2023-08-30T02:52:42;20.50;;;17.15;;
70467;SDS011;57934;51.532;7.684;2023-08-30T02:55:08;23.27;;;19.10;;
70467;SDS011;57934;51.532;7.684;2023-08-30T02:57:34;21.92;;;17.52;;
70467;SDS011;57934;51.532;7.684;2023-08-30T03:00:00;23.48;;;18.17;;
70467;SDS011;57934;51.532;7.684;2023-08-30T03:02:26;20.90;;;18.40;;
70467;SDS011;57934;51.532;7.684;2023-08-30T03:04:52;22.27;;;17.75;;
70467;SDS011;57934;51.532;7.684;2023-08-30T03:07:20;22.23;;;18.55;;
70467;SDS011;57934;51.532;7.684;2023-08-30T03:09:51;22.17;;;17.90;;
70467;SDS011;57934;51.532;7.684;2023-08-30T03:12:18;23.90;;;18.70;;
70467;SDS011;57934;51.532;7.684;2023-08-30T03:14:45;25.95;;;19.45;;
70467;SDS011;57934;51.532;7.684;2023-08-30T03:17:12;24.20;;;19.67;;
70467;SDS011;57934;51.532;7.684;2023-08-30T03:19:38;21.85;;;19.52;;
70467;SDS011;57934;51.532;7.684;2023-08-30T03:22:04;26.02;;;19.85;;
70467;SDS011;57934;51.532;7.684;2023-08-30T03:24:30;23.90;;;19.70;;
70467;SDS011;57934;51.532;7.684;2023-08-30T03:26:56;28.83;;;20.35;;
70467;SDS011;57934;51.532;7.684;2023-08-30T03:29:22;26.70;;;19.95;;
70467;SDS011;57934;51.532;7.684;2023-08-30T03:31:48;25.38;;;21.23;;
70467;SDS011;57934;51.532;7.684;2023-08-30T03:34:14;24.83;;;20.25;;
70467;SDS011;57934;51.532;7.684;2023-08-30T03:36:40;28.45;;;21.23;;
70467;SDS011;57934;51.532;7.684;2023-08-30T03:39:08;26.65;;;21.05;;
70467;SDS011;57934;51.532;7.684;2023-08-30T03:41:34;27.65;;;21.40;;
70467;SDS011;57934;51.532;7.684;2023-08-30T03:44:01;29.17;;;21.95;;
70467;SDS011;57934;51.532;7.684;2023-08-30T03:46:27;27.27;;;22.48;;
70467;SDS011;57934;51.532;7.684;2023-08-30T03:48:53;31.25;;;22.27;;
70467;SDS011;57934;51.532;7.684;2023-08-30T03:51:19;27.42;;;22.38;;
70467;SDS011;57934;51.532;7.684;2023-08-30T03:53:48;27.13;;;21.23;;
70467;SDS011;57934;51.532;7.684;2023-08-30T03:56:14;30.17;;;22.10;;
70467;SDS011;57934;51.532;7.684;2023-08-30T03:58:40;27.65;;;22.63;;
70467;SDS011;57934;51.532;7.684;2023-08-30T04:01:06;29.90;;;22.10;;
70467;SDS011;57934;51.532;7.684;2023-08-30T04:03:32;29.40;;;22.75;;
70467;SDS011;57934;51.532;7.684;2023-08-30T04:05:58;28.60;;;22.80;;
70467;SDS011;57934;51.532;7.684;2023-08-30T04:08:24;31.90;;;21.95;;
70467;SDS011;57934;51.532;7.684;2023-08-30T04:10:52;30.33;;;23.52;;
70467;SDS011;57934;51.532;7.684;2023-08-30T04:13:18;27.20;;;23.17;;
70467;SDS011;57934;51.532;7.684;2023-08-30T04:15:44;30.35;;;22.48;;
70467;SDS011;57934;51.532;7.684;2023-08-30T04:18:10;32.75;;;22.63;;
70467;SDS011;57934;51.532;7.684;2023-08-30T04:20:36;28.42;;;22.25;;
70467;SDS011;57934;51.532;7.684;2023-08-30T04:23:08;27.08;;;22.75;;
70467;SDS011;57934;51.532;7.684;2023-08-30T04:25:34;28.23;;;22.27;;
70467;SDS011;57934;51.532;7.684;2023-08-30T04:28:00;29.27;;;23.27;;
70467;SDS011;57934;51.532;7.684;2023-08-30T04:30:26;33.83;;;23.70;;
70467;SDS011;57934;51.532;7.684;2023-08-30T04:32:52;30.52;;;23.60;;
70467;SDS011;57934;51.532;7.684;2023-08-30T04:35:18;30.48;;;22.90;;
70467;SDS011;57934;51.532;7.684;2023-08-30T04:37:44;30.20;;;24.23;;
70467;SDS011;57934;51.532;7.684;2023-08-30T04:40:10;31.58;;;24.48;;
70467;SDS011;57934;51.532;7.684;2023-08-30T04:42:36;31.70;;;23.45;;
70467;SDS011;57934;51.532;7.684;2023-08-30T04:45:03;35.22;;;23.60;;
70467;SDS011;57934;51.532;7.684;2023-08-30T04:47:30;30.67;;;22.95;;
70467;SDS011;57934;51.532;7.684;2023-08-30T04:49:58;29.40;;;21.55;;
70467;SDS011;57934;51.532;7.684;2023-08-30T04:52:25;27.02;;;21.75;;
70467;SDS011;57934;51.532;7.684;2023-08-30T04:54:54;28.13;;;21.88;;
70467;SDS011;57934;51.532;7.684;2023-08-30T04:57:22;27.73;;;21.60;;
70467;SDS011;57934;51.532;7.684;2023-08-30T04:59:48;29.55;;;22.23;;
70467;SDS011;57934;51.532;7.684;2023-08-30T05:02:14;28.73;;;21.60;;
70467;SDS011;57934;51.532;7.684;2023-08-30T05:04:51;27.17;;;22.20;;
70467;SDS011;57934;51.532;7.684;2023-08-30T05:07:17;31.48;;;23.27;;
70467;SDS011;57934;51.532;7.684;2023-08-30T05:09:43;29.13;;;22.42;;
70467;SDS011;57934;51.532;7.684;2023-08-30T05:12:09;31.10;;;23.08;;
70467;SDS011;57934;51.532;7.684;2023-08-30T05:14:35;31.92;;;22.13;;
70467;SDS011;57934;51.532;7.684;2023-08-30T05:17:02;31.00;;;21.60;;
70467;SDS011;57934;51.532;7.684;2023-08-30T05:19:27;35.20;;;23.30;;
70467;SDS011;57934;51.532;7.684;2023-08-30T05:21:54;33.03;;;22.65;;
70467;SDS011;57934;51.532;7.684;2023-08-30T05:24:20;32.50;;;22.85;;
70467;SDS011;57934;51.532;7.684;2023-08-30T05:26:47;33.15;;;22.92;;
70467;SDS011;57934;51.532;7.684;2023-08-30T05:29:14;29.13;;;20.98;;
70467;SDS011;57934;51.532;7.684;2023-08-30T05:31:41;31.40;;;22.10;;
70467;SDS011;57934;51.532;7.684;2023-08-30T05:34:22;28.08;;;19.90;;
70467;SDS011;57934;51.532;7.684;2023-08-30T05:37:08;29.13;;;20.48;;
70467;SDS011;57934;51.532;7.684;2023-08-30T05:39:52;30.55;;;21.73;;
70467;SDS011;57934;51.532;7.684;2023-08-30T05:42:18;27.98;;;20.45;;
70467;SDS011;57934;51.532;7.684;2023-08-30T05:44:44;29.60;;;21.23;;
70467;SDS011;57934;51.532;7.684;2023-08-30T05:47:10;30.50;;;20.55;;
70467;SDS011;57934;51.532;7.684;2023-08-30T05:49:40;28.60;;;20.52;;
70467;SDS011;57934;51.532;7.684;2023-08-30T05:52:06;30.77;;;21.25;;
70467;SDS011;57934;51.532;7.684;2023-08-30T05:54:33;31.50;;;21.92;;
70467;SDS011;57934;51.532;7.684;2023-08-30T05:56:59;29.77;;;21.92;;
70467;SDS011;57934;51.532;7.684;2023-08-30T05:59:26;28.38;;;21.75;;
70467;SDS011;57934;51.532;7.684;2023-08-30T06:01:53;30.42;;;21.15;;
70467;SDS011;57934;51.532;7.684;2023-08-30T06:04:19;27.45;;;20.83;;
70467;SDS011;57934;51.532;7.684;2023-08-30T06:06:46;30.23;;;20.83;;
70467;SDS011;57934;51.532;7.684;2023-08-30T06:09:12;33.13;;;21.45;;
70467;SDS011;57934;51.532;7.684;2023-08-30T06:11:40;33.25;;;21.65;;
70467;SDS011;57934;51.532;7.684;2023-08-30T06:14:07;30.05;;;22.27;;
70467;SDS011;57934;51.532;7.684;2023-08-30T06:16:33;32.38;;;21.85;;
70467;SDS011;57934;51.532;7.684;2023-08-30T06:18:59;29.10;;;21.92;;
70467;SDS011;57934;51.532;7.684;2023-08-30T06:21:25;28.85;;;23.08;;
70467;SDS011;57934;51.532;7.684;2023-08-30T06:23:51;29.23;;;22.15;;
70467;SDS011;57934;51.532;7.684;2023-08-30T06:26:18;31.98;;;22.85;;
70467;SDS011;57934;51.532;7.684;2023-08-30T06:28:44;34.80;;;23.80;;
70467;SDS011;57934;51.532;7.684;2023-08-30T06:31:10;33.80;;;24.70;;
70467;SDS011;57934;51.532;7.684;2023-08-30T06:33:36;30.63;;;24.27;;
70467;SDS011;57934;51.532;7.684;2023-08-30T06:36:05;32.05;;;24.40;;
70467;SDS011;57934;51.532;7.684;2023-08-30T06:38:31;31.20;;;23.73;;
70467;SDS011;57934;51.532;7.684;2023-08-30T06:40:57;31.20;;;25.27;;
70467;SDS011;57934;51.532;7.684;2023-08-30T06:43:24;30.92;;;25.17;;
70467;SDS011;57934;51.532;7.684;2023-08-30T06:45:51;35.97;;;26.45;;
70467;SDS011;57934;51.532;7.684;2023-08-30T06:48:18;36.20;;;25.08;;
70467;SDS011;57934;51.532;7.684;2023-08-30T06:50:44;31.75;;;25.70;;
70467;SDS011;57934;51.532;7.684;2023-08-30T06:53:10;32.63;;;24.70;;
70467;SDS011;57934;51.532;7.684;2023-08-30T06:55:36;36.40;;;26.25;;
70467;SDS011;57934;51.532;7.684;2023-08-30T06:58:03;31.27;;;25.30;;
70467;SDS011;57934;51.532;7.684;2023-08-30T07:00:29;32.55;;;25.50;;
70467;SDS011;57934;51.532;7.684;2023-08-30T07:02:55;31.83;;;25.55;;
70467;SDS011;57934;51.532;7.684;2023-08-30T07:05:22;33.25;;;25.30;;
70467;SDS011;57934;51.532;7.684;2023-08-30T07:07:48;31.50;;;24.00;;
70467;SDS011;57934;51.532;7.684;2023-08-30T07:10:14;31.30;;;25.10;;
70467;SDS011;57934;51.532;7.684;2023-08-30T07:12:40;30.58;;;24.10;;
70467;SDS011;57934;51.532;7.684;2023-08-30T07:15:07;29.85;;;24.65;;
70467;SDS011;57934;51.532;7.684;2023-08-30T07:17:33;35.35;;;25.00;;
70467;SDS011;57934;51.532;7.684;2023-08-30T07:19:59;33.13;;;24.92;;
70467;SDS011;57934;51.532;7.684;2023-08-30T07:22:25;34.40;;;23.77;;
70467;SDS011;57934;51.532;7.684;2023-08-30T07:24:51;32.22;;;24.08;;
70467;SDS011;57934;51.532;7.684;2023-08-30T07:27:17;33.17;;;23.40;;
70467;SDS011;57934;51.532;7.684;2023-08-30T07:29:43;34.25;;;25.45;;
70467;SDS011;57934;51.532;7.684;2023-08-30T07:32:09;30.77;;;23.70;;
70467;SDS011;57934;51.532;7.684;2023-08-30T07:34:35;32.35;;;23.52;;
70467;SDS011;57934;51.532;7.684;2023-08-30T07:37:01;31.38;;;24.10;;
70467;SDS011;57934;51.532;7.684;2023-08-30T07:39:27;30.10;;;23.58;;
70467;SDS011;57934;51.532;7.684;2023-08-30T07:41:53;32.17;;;24.20;;
70467;SDS011;57934;51.532;7.684;2023-08-30T07:44:19;32.13;;;24.77;;
70467;SDS011;57934;51.532;7.684;2023-08-30T07:46:46;32.42;;;23.27;;
70467;SDS011;57934;51.532;7.684;2023-08-30T07:49:12;29.27;;;22.73;;
70467;SDS011;57934;51.532;7.684;2023-08-30T07:51:38;28.25;;;21.90;;
70467;SDS011;57934;51.532;7.684;2023-08-30T07:54:04;24.45;;;20.77;;
70467;SDS011;57934;51.532;7.684;2023-08-30T07:56:30;25.05;;;19.60;;
70467;SDS011;57934;51.532;7.684;2023-08-30T07:58:56;26.00;;;20.20;;
70467;SDS011;57934;51.532;7.684;2023-08-30T08:01:22;22.13;;;18.52;;
70467;SDS011;57934;51.532;7.684;2023-08-30T08:03:48;25.45;;;18.10;;
70467;SDS011;57934;51.532;7.684;2023-08-30T08:06:14;21.60;;;17.17;;
70467;SDS011;57934;51.532;7.684;2023-08-30T08:08:40;17.35;;;15.50;;
70467;SDS011;57934;51.532;7.684;2023-08-30T08:11:06;17.98;;;14.65;;
70467;SDS011;57934;51.532;7.684;2023-08-30T08:13:32;19.52;;;14.85;;
70467;SDS011;57934;51.532;7.684;2023-08-30T08:15:58;16.52;;;13.02;;
70467;SDS011;57934;51.532;7.684;2023-08-30T08:18:24;16.63;;;13.38;;
70467;SDS011;57934;51.532;7.684;2023-08-30T08:20:50;15.48;;;12.82;;
70467;SDS011;57934;51.532;7.684;2023-08-30T08:23:16;14.07;;;12.50;;
70467;SDS011;57934;51.532;7.684;2023-08-30T08:25:42;12.85;;;11.18;;
70467;SDS011;57934;51.532;7.684;2023-08-30T08:28:08;12.95;;;10.93;;
70467;SDS011;57934;51.532;7.684;2023-08-30T08:30:34;14.10;;;10.25;;
70467;SDS011;57934;51.532;7.684;2023-08-30T08:33:01;15.98;;;10.35;;
70467;SDS011;57934;51.532;7.684;2023-08-30T08:35:27;11.15;;;9.30;;
70467;SDS011;57934;51.532;7.684;2023-08-30T08:37:53;9.88;;;8.50;;
70467;SDS011;57934;51.532;7.684;2023-08-30T08:40:19;10.50;;;8.68;;
70467;SDS011;57934;51.532;7.684;2023-08-30T08:42:45;13.52;;;9.05;;
70467;SDS011;57934;51.532;7.684;2023-08-30T08:45:16;13.82;;;9.23;;
70467;SDS011;57934;51.532;7.684;2023-08-30T08:47:43;11.63;;;8.90;;
70467;SDS011;57934;51.532;7.684;2023-08-30T08:50:11;10.85;;;8.52;;
70467;SDS011;57934;51.532;7.684;2023-08-30T08:52:37;9.18;;;8.27;;
70467;SDS011;57934;51.532;7.684;2023-08-30T08:55:03;9.63;;;8.63;;
70467;SDS011;57934;51.532;7.684;2023-08-30T08:57:29;9.30;;;7.88;;
70467;SDS011;57934;51.532;7.684;2023-08-30T08:59:58;9.10;;;7.07;;
70467;SDS011;57934;51.532;7.684;2023-08-30T09:02:25;12.68;;;6.40;;
70467;SDS011;57934;51.532;7.684;2023-08-30T09:04:52;7.63;;;4.97;;
70467;SDS011;57934;51.532;7.684;2023-08-30T09:07:18;6.57;;;4.95;;
70467;SDS011;57934;51.532;7.684;2023-08-30T09:09:46;5.78;;;4.53;;
70467;SDS011;57934;51.532;7.684;2023-08-30T09:12:12;5.95;;;4.72;;
70467;SDS011;57934;51.532;7.684;2023-08-30T09:14:38;5.75;;;5.00;;
70467;SDS011;57934;51.532;7.684;2023-08-30T09:17:04;4.85;;;4.32;;
70467;SDS011;57934;51.532;7.684;2023-08-30T09:19:30;7.50;;;4.43;;
70467;SDS011;57934;51.532;7.684;2023-08-30T09:21:57;7.13;;;4.63;;
70467;SDS011;57934;51.532;7.684;2023-08-30T09:24:24;5.45;;;4.22;;
70467;SDS011;57934;51.532;7.684;2023-08-30T09:26:54;6.15;;;4.25;;
70467;SDS011;57934;51.532;7.684;2023-08-30T09:29:20;7.05;;;4.03;;
70467;SDS011;57934;51.532;7.684;2023-08-30T09:31:51;6.85;;;4.30;;
70467;SDS011;57934;51.532;7.684;2023-08-30T09:34:22;6.53;;;4.13;;
70467;SDS011;57934;51.532;7.684;2023-08-30T09:36:51;6.25;;;3.80;;
70467;SDS011;57934;51.532;7.684;2023-08-30T09:39:18;4.93;;;3.72;;
70467;SDS011;57934;51.532;7.684;2023-08-30T09:41:45;5.35;;;3.53;;
70467;SDS011;57934;51.532;7.684;2023-08-30T09:44:20;6.93;;;3.10;;
70467;SDS011;57934;51.532;7.684;2023-08-30T09:46:50;8.50;;;3.85;;
70467;SDS011;57934;51.532;7.684;2023-08-30T09:49:21;5.88;;;3.88;;
70467;SDS011;57934;51.532;7.684;2023-08-30T09:51:49;4.68;;;3.67;;
70467;SDS011;57934;51.532;7.684;2023-08-30T09:54:18;6.68;;;3.55;;
70467;SDS011;57934;51.532;7.684;2023-08-30T09:56:45;8.80;;;3.70;;
70467;SDS011;57934;51.532;7.684;2023-08-30T09:59:12;5.13;;;3.50;;
70467;SDS011;57934;51.532;7.684;2023-08-30T10:01:42;3.85;;;3.25;;
70467;SDS011;57934;51.532;7.684;2023-08-30T10:04:09;7.13;;;3.75;;
70467;SDS011;57934;51.532;7.684;2023-08-30T10:06:39;4.50;;;3.65;;
70467;SDS011;57934;51.532;7.684;2023-08-30T10:09:06;7.10;;;3.13;;
70467;SDS011;57934;51.532;7.684;2023-08-30T10:11:34;3.30;;;3.00;;
70467;SDS011;57934;51.532;7.684;2023-08-30T10:14:05;4.35;;;3.15;;
70467;SDS011;57934;51.532;7.684;2023-08-30T10:16:40;7.05;;;3.10;;
70467;SDS011;57934;51.532;7.684;2023-08-30T10:19:10;6.47;;;3.15;;
70467;SDS011;57934;51.532;7.684;2023-08-30T10:21:39;3.80;;;2.88;;
70467;SDS011;57934;51.532;7.684;2023-08-30T10:24:08;6.55;;;3.40;;
70467;SDS011;57934;51.532;7.684;2023-08-30T10:26:36;3.88;;;3.17;;
70467;SDS011;57934;51.532;7.684;2023-08-30T10:29:04;6.97;;;3.38;;
70467;SDS011;57934;51.532;7.684;2023-08-30T10:31:32;7.60;;;3.30;;
70467;SDS011;57934;51.532;7.684;2023-08-30T10:33:58;5.32;;;3.22;;
70467;SDS011;57934;51.532;7.684;2023-08-30T10:36:25;4.57;;;3.10;;
70467;SDS011;57934;51.532;7.684;2023-08-30T10:38:55;5.72;;;3.20;;
70467;SDS011;57934;51.532;7.684;2023-08-30T10:41:24;7.57;;;3.08;;
70467;SDS011;57934;51.532;7.684;2023-08-30T10:43:51;5.30;;;3.03;;
70467;SDS011;57934;51.532;7.684;2023-08-30T10:46:33;4.97;;;3.65;;
70467;SDS011;57934;51.532;7.684;2023-08-30T10:49:11;6.55;;;3.38;;
70467;SDS011;57934;51.532;7.684;2023-08-30T10:51:40;7.28;;;3.60;;
70467;SDS011;57934;51.532;7.684;2023-08-30T10:54:13;4.70;;;3.33;;
70467;SDS011;57934;51.532;7.684;2023-08-30T10:59:16;6.18;;;4.03;;
70467;SDS011;57934;51.532;7.684;2023-08-30T11:01:43;6.60;;;3.58;;
70467;SDS011;57934;51.532;7.684;2023-08-30T11:04:10;4.45;;;3.90;;
70467;SDS011;57934;51.532;7.684;2023-08-30T11:06:39;5.82;;;4.15;;
70467;SDS011;57934;51.532;7.684;2023-08-30T11:09:05;8.40;;;4.97;;
70467;SDS011;57934;51.532;7.684;2023-08-30T11:11:33;8.30;;;5.00;;
70467;SDS011;57934;51.532;7.684;2023-08-30T11:14:08;9.55;;;7.35;;
70467;SDS011;57934;51.532;7.684;2023-08-30T11:16:35;9.43;;;7.38;;
70467;SDS011;57934;51.532;7.684;2023-08-30T11:19:02;10.52;;;7.93;;
70467;SDS011;57934;51.532;7.684;2023-08-30T11:21:33;10.77;;;8.50;;
70467;SDS011;57934;51.532;7.684;2023-08-30T11:24:01;10.80;;;9.27;;
70467;SDS011;57934;51.532;7.684;2023-08-30T11:26:29;10.80;;;8.95;;
70467;SDS011;57934;51.532;7.684;2023-08-30T11:28:55;10.25;;;9.25;;
70467;SDS011;57934;51.532;7.684;2023-08-30T11:31:22;13.23;;;11.25;;
70467;SDS011;57934;51.532;7.684;2023-08-30T11:33:55;11.75;;;10.63;;
70467;SDS011;57934;51.532;7.684;2023-08-30T11:36:23;19.88;;;11.82;;
70467;SDS011;57934;51.532;7.684;2023-08-30T11:38:52;14.68;;;13.13;;
70467;SDS011;57934;51.532;7.684;2023-08-30T11:41:19;16.58;;;13.07;;
70467;SDS011;57934;51.532;7.684;2023-08-30T11:43:49;14.20;;;12.73;;
70467;SDS011;57934;51.532;7.684;2023-08-30T11:46:19;17.27;;;14.35;;
70467;SDS011;57934;51.532;7.684;2023-08-30T11:48:46;16.92;;;15.07;;
70467;SDS011;57934;51.532;7.684;2023-08-30T11:51:13;18.77;;;15.45;;
70467;SDS011;57934;51.532;7.684;2023-08-30T11:53:40;18.90;;;17.08;;
70467;SDS011;57934;51.532;7.684;2023-08-30T11:56:06;19.92;;;16.45;;
70467;SDS011;57934;51.532;7.684;2023-08-30T11:58:35;21.00;;;16.17;;
70467;SDS011;57934;51.532;7.684;2023-08-30T12:01:02;16.05;;;13.93;;
70467;SDS011;57934;51.532;7.684;2023-08-30T12:03:30;15.38;;;11.98;;
70467;SDS011;57934;51.532;7.684;2023-08-30T12:05:57;12.40;;;11.20;;
70467;SDS011;57934;51.532;7.684;2023-08-30T12:08:24;13.45;;;12.05;;
70467;SDS011;57934;51.532;7.684;2023-08-30T12:10:52;14.65;;;13.18;;
70467;SDS011;57934;51.532;7.684;2023-08-30T12:13:20;15.40;;;13.35;;
70467;SDS011;57934;51.532;7.684;2023-08-30T12:15:53;14.23;;;12.32;;
70467;SDS011;57934;51.532;7.684;2023-08-30T12:18:27;14.38;;;11.88;;
70467;SDS011;57934;51.532;7.684;2023-08-30T12:20:58;15.02;;;12.10;;
70467;SDS011;57934;51.532;7.684;2023-08-30T12:23:31;16.45;;;12.48;;
70467;SDS011;57934;51.532;7.684;2023-08-30T12:28:29;17.90;;;11.63;;
70467;SDS011;57934;51.532;7.684;2023-08-30T12:30:57;18.00;;;11.23;;
70467;SDS011;57934;51.532;7.684;2023-08-30T12:33:23;15.10;;;12.90;;
70467;SDS011;57934;51.532;7.684;2023-08-30T12:35:54;15.18;;;11.70;;
70467;SDS011;57934;51.532;7.684;2023-08-30T12:38:21;14.80;;;11.15;;
70467;SDS011;57934;51.532;7.684;2023-08-30T12:40:48;14.38;;;11.35;;
70467;SDS011;57934;51.532;7.684;2023-08-30T12:43:16;16.08;;;12.07;;
70467;SDS011;57934;51.532;7.684;2023-08-30T12:45:43;13.00;;;11.05;;
70467;SDS011;57934;51.532;7.684;2023-08-30T12:48:10;19.90;;;12.80;;
70467;SDS011;57934;51.532;7.684;2023-08-30T12:50:38;16.60;;;12.68;;
70467;SDS011;57934;51.532;7.684;2023-08-30T12:53:05;12.88;;;11.05;;
70467;SDS011;57934;51.532;7.684;2023-08-30T12:55:31;13.60;;;11.55;;
70467;SDS011;57934;51.532;7.684;2023-08-30T12:57:58;14.90;;;11.98;;
70467;SDS011;57934;51.532;7.684;2023-08-30T13:00:24;13.38;;;9.30;;
70467;SDS011;57934;51.532;7.684;2023-08-30T13:02:50;9.70;;;8.73;;
70467;SDS011;57934;51.532;7.684;2023-08-30T13:05:16;11.88;;;8.68;;
70467;SDS011;57934;51.532;7.684;2023-08-30T13:07:43;10.80;;;9.32;;
70467;SDS011;57934;51.532;7.684;2023-08-30T13:10:09;12.10;;;8.55;;
70467;SDS011;57934;51.532;7.684;2023-08-30T13:12:36;11.10;;;7.85;;
70467;SDS011;57934;51.532;7.684;2023-08-30T13:15:03;10.73;;;6.78;;
70467;SDS011;57934;51.532;7.684;2023-08-30T13:17:33;7.28;;;6.47;;
70467;SDS011;57934;51.532;7.684;2023-08-30T13:19:59;7.65;;;5.78;;
70467;SDS011;57934;51.532;7.684;2023-08-30T13:22:25;7.53;;;5.72;;
70467;SDS011;57934;51.532;7.684;2023-08-30T13:24:51;7.85;;;5.82;;
70467;SDS011;57934;51.532;7.684;2023-08-30T13:27:18;7.22;;;5.75;;
70467;SDS011;57934;51.532;7.684;2023-08-30T13:29:44;5.28;;;4.70;;
70467;SDS011;57934;51.532;7.684;2023-08-30T13:32:10;5.75;;;3.92;;
70467;SDS011;57934;51.532;7.684;2023-08-30T13:34:37;4.07;;;3.63;;
70467;SDS011;57934;51.532;7.684;2023-08-30T13:37:04;4.13;;;3.72;;
70467;SDS011;57934;51.532;7.684;2023-08-30T13:39:30;4.13;;;3.72;;
70467;SDS011;57934;51.532;7.684;2023-08-30T13:41:56;4.60;;;3.60;;
70467;SDS011;57934;51.532;7.684;2023-08-30T13:44:22;4.80;;;3.60;;
70467;SDS011;57934;51.532;7.684;2023-08-30T13:46:49;6.18;;;3.90;;
70467;SDS011;57934;51.532;7.684;2023-08-30T13:49:15;4.00;;;3.63;;
70467;SDS011;57934;51.532;7.684;2023-08-30T13:51:42;4.38;;;3.67;;
70467;SDS011;57934;51.532;7.684;2023-08-30T13:54:08;3.55;;;3.35;;
70467;SDS011;57934;51.532;7.684;2023-08-30T13:56:35;4.30;;;3.95;;
70467;SDS011;57934;51.532;7.684;2023-08-30T13:59:01;6.35;;;4.32;;
70467;SDS011;57934;51.532;7.684;2023-08-30T14:01:27;8.15;;;4.00;;
70467;SDS011;57934;51.532;7.684;2023-08-30T14:03:53;5.13;;;3.67;;
70467;SDS011;57934;51.532;7.684;2023-08-30T14:06:19;6.15;;;4.70;;
70467;SDS011;57934;51.532;7.684;2023-08-30T14:08:45;4.50;;;4.10;;
70467;SDS011;57934;51.532;7.684;2023-08-30T14:11:11;5.90;;;4.97;;
70467;SDS011;57934;51.532;7.684;2023-08-30T14:13:36;5.60;;;5.10;;
70467;SDS011;57934;51.532;7.684;2023-08-30T14:16:02;5.57;;;5.07;;
70467;SDS011;57934;51.532;7.684;2023-08-30T14:18:29;4.90;;;4.38;;
70467;SDS011;57934;51.532;7.684;2023-08-30T14:20:56;5.70;;;4.18;;
70467;SDS011;57934;51.532;7.684;2023-08-30T14:23:26;7.60;;;4.72;;
70467;SDS011;57934;51.532;7.684;2023-08-30T14:26:00;6.22;;;4.85;;
70467;SDS011;57934;51.532;7.684;2023-08-30T14:28:34;5.43;;;4.75;;
70467;SDS011;57934;51.532;7.684;2023-08-30T14:31:00;6.47;;;4.57;;
70467;SDS011;57934;51.532;7.684;2023-08-30T14:33:26;6.85;;;4.65;;
70467;SDS011;57934;51.532;7.684;2023-08-30T14:35:52;5.57;;;4.82;;
70467;SDS011;57934;51.532;7.684;2023-08-30T14:38:19;5.65;;;5.15;;
70467;SDS011;57934;51.532;7.684;2023-08-30T14:40:54;6.20;;;5.38;;
70467;SDS011;57934;51.532;7.684;2023-08-30T14:43:21;5.18;;;4.68;;
70467;SDS011;57934;51.532;7.684;2023-08-30T14:45:47;5.18;;;4.63;;
70467;SDS011;57934;51.532;7.684;2023-08-30T14:48:13;4.85;;;4.40;;